Terminal Aerodrome Forecast
Issued by NWS Grand Junction, CO

Home | Current Version | Previous Version | Text Only | Print | Product List | Glossary On
Versions: 1 2 3 4 5 6 7 8 9 10 11 12 13 14 15 16 17 18 19 20 21 22 23 24 25 26 27 28 29
000
FTUS45 KGJT 300520
TAFGJT
TAF
KGJT 300520Z 3006/3106 11008KT P6SM FEW110 BKN200
     FM301500 16007KT P6SM BKN200
     FM302000 24010G15KT P6SM SCT110 BKN200
     FM310200 03005KT P6SM SCT110 SCT200=

USA.gov is the U.S. government's official web portal to all federal, state and local government web resources and services.